createdAt,value
2018-12-24T00:02:00.439Z,95039.17
2018-12-24T00:09:42.212Z,95020.04
2018-12-24T00:12:11.267Z,95030.55
2018-12-24T00:14:40.316Z,95065.50
2018-12-24T00:17:09.383Z,95025.66
2018-12-24T00:22:19.807Z,95001.25
2018-12-24T00:24:48.835Z,94983.92
2018-12-24T00:27:17.885Z,94986.34
2018-12-24T00:29:46.986Z,95001.38
2018-12-24T00:32:16.063Z,95002.11
2018-12-24T00:34:46.241Z,94983.51
2018-12-24T00:37:15.309Z,94996.02
2018-12-24T00:39:44.360Z,94997.41
2018-12-24T00:42:15.888Z,94981.76
2018-12-24T00:44:42.550Z,94980.50
2018-12-24T00:47:11.614Z,94983.62
2018-12-24T00:49:40.669Z,94978.43
2018-12-24T00:54:48.499Z,94981.87
2018-12-24T00:57:17.549Z,94990.51
2018-12-24T01:02:22.385Z,94976.14
2018-12-24T01:04:51.438Z,94962.48
2018-12-24T01:07:20.484Z,94982.23
2018-12-24T01:09:49.530Z,94969.45
2018-12-24T01:14:54.399Z,94955.13
2018-12-24T01:17:23.446Z,94979.50
2018-12-24T01:22:28.208Z,94957.07
2018-12-24T01:24:57.271Z,94920.09
2018-12-24T01:27:26.287Z,94939.22
2018-12-24T01:32:34.052Z,94952.09
2018-12-24T01:35:03.145Z,94943.16
2018-12-24T01:37:32.198Z,94987.60
2018-12-24T01:40:01.239Z,94934.41
2018-12-24T01:45:06.069Z,94962.66
2018-12-24T01:47:35.110Z,94920.67
2018-12-24T01:50:04.170Z,94991.77
2018-12-24T01:52:33.234Z,94936.41
2018-12-24T01:55:02.280Z,94940.44
2018-12-24T01:57:32.285Z,94978.52
2018-12-24T02:00:01.341Z,94945.25
2018-12-24T02:02:30.363Z,94946.64
2018-12-24T02:05:00.385Z,94944.55
2018-12-24T02:07:29.445Z,94940.91
2018-12-24T02:09:58.494Z,94898.67
2018-12-24T02:15:06.740Z,94876.92
2018-12-24T02:17:35.799Z,94873.45
2018-12-24T02:20:04.870Z,94849.66
2018-12-24T02:22:33.922Z,94844.29
2018-12-24T02:25:03.079Z,94864.13
2018-12-24T02:30:07.885Z,94871.48
2018-12-24T02:35:16.129Z,94838.73
2018-12-24T02:40:20.966Z,94838.50
2018-12-24T02:42:52.508Z,94819.53
2018-12-24T02:45:19.133Z,94822.22
2018-12-24T02:47:48.201Z,94822.98
2018-12-24T02:50:17.260Z,94860.34
2018-12-24T02:52:46.410Z,94843.82
2018-12-24T02:55:15.461Z,94798.22
2018-12-24T02:57:44.509Z,94819.83
2018-12-24T03:00:13.580Z,94802.27
2018-12-24T03:02:42.638Z,94794.17
2018-12-24T03:05:11.689Z,94773.13
2018-12-24T03:07:40.811Z,94819.53
2018-12-24T03:14:09.918Z,94820.38
2018-12-24T03:16:39.007Z,94826.43
2018-12-24T03:19:08.039Z,94817.59
2018-12-24T03:21:37.099Z,94828.22
2018-12-24T03:24:06.156Z,94817.02
2018-12-24T03:26:35.212Z,94826.91
2018-12-24T03:29:04.277Z,94844.25
2018-12-24T03:31:33.421Z,94854.84
2018-12-24T03:34:02.481Z,94839.19
2018-12-24T03:36:31.533Z,94837.78
2018-12-24T03:39:00.583Z,94849.45
2018-12-24T03:41:29.628Z,94862.73
2018-12-24T03:43:58.670Z,94885.18
2018-12-24T03:46:28.170Z,94958.67
2018-12-24T03:49:01.717Z,95033.53
2018-12-24T03:51:30.756Z,95061.23
2018-12-24T03:53:59.838Z,95037.06
2018-12-24T03:56:28.866Z,95046.45
2018-12-24T03:58:57.948Z,95035.92
2018-12-24T04:01:26.546Z,95049.33
2018-12-24T04:03:55.066Z,95051.65
2018-12-24T04:06:23.595Z,95058.56
2018-12-24T04:08:52.110Z,95067.33
2018-12-24T04:11:20.650Z,95080.47
2018-12-24T04:13:49.193Z,95093.11
2018-12-24T04:16:17.701Z,95094.16
2018-12-24T04:18:46.233Z,95089.80
2018-12-24T04:21:14.746Z,95103.42
2018-12-24T04:23:43.269Z,95107.28
2018-12-24T04:26:11.790Z,95130.96
2018-12-24T04:28:40.315Z,95131.05
2018-12-24T04:31:09.828Z,95126.34
2018-12-24T04:33:38.351Z,95127.05
2018-12-24T04:36:07.076Z,95140.22
2018-12-24T04:38:35.591Z,95143.88
2018-12-24T04:41:04.178Z,95142.20
2018-12-24T04:43:32.767Z,95160.08
2018-12-24T04:46:01.263Z,95182.61
2018-12-24T04:48:29.804Z,95205.62
2018-12-24T04:50:58.311Z,95218.50
2018-12-24T04:53:26.855Z,95225.16
2018-12-24T04:55:55.363Z,95239.75
2018-12-24T04:58:23.893Z,95240.96
2018-12-24T05:00:52.406Z,95250.37
2018-12-24T05:03:20.931Z,95258.72
2018-12-24T05:05:49.466Z,95262.23
2018-12-24T05:08:18.026Z,95272.75
2018-12-24T05:10:46.602Z,95285.73
2018-12-24T05:13:15.168Z,95302.00
2018-12-24T05:15:43.678Z,95313.14
2018-12-24T05:18:22.324Z,95320.70
2018-12-24T05:20:50.823Z,95324.07
2018-12-24T05:23:19.332Z,95344.87
2018-12-24T05:25:58.209Z,95347.08
2018-12-24T05:28:28.345Z,95364.64
2018-12-24T05:30:56.978Z,95384.97
2018-12-24T05:33:25.467Z,95380.78
2018-12-24T05:35:53.992Z,95393.27
2018-12-24T05:38:22.516Z,95420.37
2018-12-24T05:40:51.037Z,95440.02
2018-12-24T05:43:19.587Z,95447.88
2018-12-24T05:45:48.143Z,95458.30
2018-12-24T05:48:16.680Z,95465.20
2018-12-24T05:50:45.206Z,95469.73
2018-12-24T05:53:13.741Z,95477.30
2018-12-24T05:55:53.164Z,95492.35
2018-12-24T05:58:32.609Z,95509.09
2018-12-24T06:01:12.927Z,95529.88
2018-12-24T06:03:51.216Z,95541.84
2018-12-24T06:06:29.406Z,95559.44
2018-12-24T06:08:58.448Z,95576.97
2018-12-24T06:11:26.970Z,95579.13
2018-12-24T06:13:58.105Z,95594.98
2018-12-24T06:16:23.993Z,95606.32
2018-12-24T06:18:52.531Z,95619.73
2018-12-24T06:21:21.052Z,95613.04
2018-12-24T06:23:49.583Z,95623.61
2018-12-24T06:26:18.098Z,95636.48
2018-12-24T06:28:46.633Z,95650.98
2018-12-24T06:31:15.180Z,95653.94
2018-12-24T06:33:43.717Z,95672.41
2018-12-24T06:36:12.230Z,95701.64
2018-12-24T06:38:40.764Z,95715.98
2018-12-24T06:41:09.288Z,95704.11
2018-12-24T06:43:37.803Z,95714.50
2018-12-24T06:46:15.202Z,95738.65
2018-12-24T06:48:43.713Z,95744.56
2018-12-24T06:51:12.236Z,95753.55
2018-12-24T06:53:40.770Z,95764.48
2018-12-24T06:56:09.311Z,95776.23
2018-12-24T06:58:37.809Z,95797.25
2018-12-24T07:01:06.330Z,95804.11
2018-12-24T07:03:34.868Z,95808.09
2018-12-24T07:06:03.392Z,95815.92
2018-12-24T07:08:31.910Z,95829.02
2018-12-24T07:11:00.451Z,95825.78
2018-12-24T07:13:28.974Z,95837.47
2018-12-24T07:15:57.486Z,95839.76
2018-12-24T07:18:26.081Z,95837.47
2018-12-24T07:20:55.321Z,95851.84
2018-12-24T07:23:23.845Z,95842.06
2018-12-24T07:25:52.458Z,95863.31
2018-12-24T07:28:21.063Z,95871.95
2018-12-24T07:30:57.205Z,95871.34
2018-12-24T07:33:25.717Z,95891.98
2018-12-24T07:35:54.265Z,95901.56
2018-12-24T07:38:22.832Z,95917.80
2018-12-24T07:40:51.459Z,95925.34
2018-12-24T07:43:19.973Z,95943.48
2018-12-24T07:45:48.490Z,95952.20
2018-12-24T07:48:17.004Z,95962.67
2018-12-24T07:50:45.554Z,95972.48
2018-12-24T07:53:14.094Z,95983.50
2018-12-24T07:55:42.609Z,95989.88
2018-12-24T07:58:13.198Z,95994.59
2018-12-24T08:00:41.692Z,96002.66
2018-12-24T08:03:10.225Z,96012.05
2018-12-24T08:05:38.772Z,96021.89
2018-12-24T08:08:07.268Z,96023.89
2018-12-24T08:10:35.794Z,96032.38
2018-12-24T08:13:09.968Z,96033.96
2018-12-24T08:15:38.654Z,96040.09
2018-12-24T08:18:07.166Z,96045.25
2018-12-24T08:20:35.695Z,96047.05
2018-12-24T08:23:04.227Z,96048.45
2018-12-24T08:25:32.747Z,96057.37
2018-12-24T08:28:01.266Z,96061.91
2018-12-24T08:30:29.811Z,96076.52
2018-12-24T08:32:58.321Z,96080.33
2018-12-24T08:35:26.866Z,96085.41
2018-12-24T08:37:55.771Z,96101.59
2018-12-24T08:40:24.313Z,96101.63
2018-12-24T08:42:52.841Z,96114.30
2018-12-24T08:45:21.483Z,96115.99
2018-12-24T08:47:49.992Z,96126.88
2018-12-24T08:50:18.538Z,96130.91
2018-12-24T08:52:47.057Z,96139.61
2018-12-24T08:55:15.583Z,96145.37
2018-12-24T08:57:45.073Z,96148.42
2018-12-24T09:00:13.604Z,96162.09
2018-12-24T09:02:42.128Z,96164.81
2018-12-24T09:05:10.656Z,96168.16
2018-12-24T09:07:39.213Z,96174.97
2018-12-24T09:10:07.730Z,96182.89
2018-12-24T09:12:36.254Z,96183.89
2018-12-24T09:15:04.815Z,96191.86
2018-12-24T09:17:35.118Z,96197.30
2018-12-24T09:20:06.911Z,96204.20
2018-12-24T09:22:35.410Z,96208.61
2018-12-24T09:25:03.932Z,96211.30
2018-12-24T09:27:32.437Z,96211.28
2018-12-24T09:30:00.957Z,96217.19
2018-12-24T09:32:30.449Z,96219.23
2018-12-24T09:34:58.961Z,96222.53
2018-12-24T09:37:27.494Z,96220.13
2018-12-24T09:39:56.149Z,96230.80
2018-12-24T09:42:24.718Z,96229.64
2018-12-24T09:44:58.849Z,96236.49
2018-12-24T09:47:22.818Z,96238.58
2018-12-24T09:49:51.334Z,96244.01
2018-12-24T09:52:19.904Z,96242.23
2018-12-24T09:54:48.447Z,96240.50
2018-12-24T09:57:16.983Z,96245.18
2018-12-24T09:59:45.518Z,96245.75
2018-12-24T10:02:14.026Z,96247.50
2018-12-24T10:04:42.685Z,96245.45
2018-12-24T10:07:14.641Z,96247.43
2018-12-24T10:09:43.158Z,96251.40
2018-12-24T10:12:11.742Z,96251.69
2018-12-24T10:14:40.451Z,96250.58
2018-12-24T10:17:08.953Z,96249.31
2018-12-24T10:19:37.466Z,96253.42
2018-12-24T10:22:06.001Z,96259.66
2018-12-24T10:24:35.447Z,96260.50
2018-12-24T10:27:03.925Z,96261.06
2018-12-24T10:29:32.513Z,96264.33
2018-12-24T10:32:01.014Z,96262.88
2018-12-24T10:34:29.547Z,96269.77
2018-12-24T10:36:58.066Z,96270.73
2018-12-24T10:39:26.717Z,96271.32
2018-12-24T10:41:55.333Z,96270.91
2018-12-24T10:44:24.067Z,96270.31
2018-12-24T10:46:52.577Z,96270.20
2018-12-24T10:49:21.192Z,96270.88
2018-12-24T10:51:49.780Z,96273.52
2018-12-24T10:54:18.382Z,96271.40
2018-12-24T10:56:46.994Z,96269.94
2018-12-24T10:59:15.607Z,96277.61
2018-12-24T11:01:44.792Z,96285.08
2018-12-24T11:04:12.857Z,96291.34
2018-12-24T11:06:41.463Z,96285.74
2018-12-24T11:09:09.995Z,96288.95
2018-12-24T11:11:38.601Z,96288.30
2018-12-24T11:14:08.150Z,96285.59
2018-12-24T11:16:37.639Z,96288.21
2018-12-24T11:19:06.441Z,96287.72
2018-12-24T11:21:35.839Z,96284.36
2018-12-24T11:24:04.457Z,96284.47
2018-12-24T11:26:33.392Z,96284.63
2018-12-24T11:29:02.038Z,96284.13
2018-12-24T11:31:30.668Z,96290.51
2018-12-24T11:33:59.248Z,96293.07
2018-12-24T11:36:28.172Z,96298.33
2018-12-24T11:38:56.723Z,96297.48
2018-12-24T11:41:26.374Z,96296.20
2018-12-24T11:43:55.026Z,96301.69
2018-12-24T11:46:23.616Z,96300.23
2018-12-24T11:48:52.893Z,96294.48
2018-12-24T11:51:21.449Z,96292.45
2018-12-24T11:53:50.147Z,96296.31
2018-12-24T11:56:18.646Z,96294.59
2018-12-24T11:58:47.157Z,96297.50
2018-12-24T12:01:15.897Z,96297.66
2018-12-24T12:03:44.679Z,96300.83
2018-12-24T12:06:19.777Z,96299.72
2018-12-24T12:08:42.018Z,96300.05
2018-12-24T12:11:10.829Z,96300.69
2018-12-24T12:13:39.446Z,96300.36
2018-12-24T12:16:08.070Z,96309.23
2018-12-24T12:18:39.108Z,96311.11
2018-12-24T12:21:16.004Z,96319.13
2018-12-24T12:23:47.961Z,96312.52
2018-12-24T12:26:19.598Z,96312.31
2018-12-24T12:28:50.699Z,96312.47
2018-12-24T12:31:21.253Z,96315.62
2018-12-24T12:33:49.753Z,96309.48
2018-12-24T12:36:18.274Z,96319.18
2018-12-24T12:38:46.818Z,96321.17
2018-12-24T12:41:15.768Z,96322.75
2018-12-24T12:43:44.292Z,96325.13
2018-12-24T12:46:12.810Z,96334.56
2018-12-24T12:48:41.350Z,96338.25
2018-12-24T12:51:09.882Z,96343.53
2018-12-24T12:53:38.897Z,96345.64
2018-12-24T12:56:09.446Z,96355.09
2018-12-24T12:58:39.788Z,96352.80
2018-12-24T13:01:09.408Z,96358.30
2018-12-24T13:03:37.948Z,96357.81
2018-12-24T13:06:06.464Z,96363.97
2018-12-24T13:08:35.035Z,96378.34
2018-12-24T13:11:07.971Z,96386.84
2018-12-24T13:13:42.929Z,96391.31
2018-12-24T13:16:16.049Z,96388.76
2018-12-24T13:18:49.932Z,96395.14
2018-12-24T13:21:18.572Z,96402.02
2018-12-24T13:23:47.106Z,96408.11
2018-12-24T13:26:15.649Z,96402.24
2018-12-24T13:28:44.189Z,96409.38
2018-12-24T13:31:12.727Z,96411.05
2018-12-24T13:33:41.315Z,96415.40
2018-12-24T13:36:09.834Z,96416.89
2018-12-24T13:38:38.395Z,96421.53
2018-12-24T13:41:06.899Z,96425.23
2018-12-24T13:43:35.480Z,96429.37
2018-12-24T13:46:08.021Z,96429.98
2018-12-24T13:48:32.582Z,96434.34
2018-12-24T13:51:01.132Z,96444.25
2018-12-24T13:53:29.797Z,96443.30
2018-12-24T13:55:59.082Z,96452.36
2018-12-24T13:58:27.603Z,96461.80
2018-12-24T14:00:56.163Z,96461.10
2018-12-24T14:03:25.564Z,96466.52
2018-12-24T14:05:54.159Z,96472.63
2018-12-24T14:08:22.649Z,96469.91
2018-12-24T14:10:51.202Z,96469.45
2018-12-24T14:13:19.720Z,96474.91
2018-12-24T14:15:48.229Z,96480.03
2018-12-24T14:18:16.758Z,96484.94
2018-12-24T14:20:45.271Z,96482.33
2018-12-24T14:23:14.848Z,96485.86
2018-12-24T14:25:43.383Z,96491.12
2018-12-24T14:28:11.898Z,96497.41
2018-12-24T14:30:40.405Z,96498.20
2018-12-24T14:33:08.937Z,96507.96
2018-12-24T14:35:37.466Z,96512.91
2018-12-24T14:38:06.017Z,96520.31
2018-12-24T14:40:34.613Z,96524.52
2018-12-24T14:43:03.341Z,96529.91
2018-12-24T14:45:31.913Z,96529.81
2018-12-24T14:48:00.425Z,96530.14
2018-12-24T14:50:28.970Z,96531.46
2018-12-24T14:52:57.481Z,96531.33
2018-12-24T14:55:28.374Z,96535.43
2018-12-24T14:57:56.949Z,96540.95
2018-12-24T15:00:25.471Z,96541.37
2018-12-24T15:02:53.991Z,96553.91
2018-12-24T15:05:22.601Z,96549.86
2018-12-24T15:07:51.423Z,96550.70
2018-12-24T15:10:20.098Z,96554.20
2018-12-24T15:12:48.710Z,96556.33
2018-12-24T15:15:17.274Z,96559.14
2018-12-24T15:17:45.815Z,96565.39
2018-12-24T15:20:14.423Z,96565.45
2018-12-24T15:22:42.985Z,96567.23
2018-12-24T15:25:11.511Z,96568.86
2018-12-24T15:27:40.032Z,96573.39
2018-12-24T15:30:08.554Z,96579.26
2018-12-24T15:32:37.762Z,96585.50
2018-12-24T15:35:06.309Z,96590.77
2018-12-24T15:37:34.849Z,96597.14
2018-12-24T15:40:03.388Z,96599.22
2018-12-24T15:42:41.772Z,96592.84
2018-12-24T15:45:11.042Z,96591.74
2018-12-24T15:47:39.567Z,96593.80
2018-12-24T15:50:08.439Z,96599.95
2018-12-24T15:52:36.945Z,96599.83
2018-12-24T15:55:05.479Z,96596.76
2018-12-24T15:57:33.999Z,96597.48
2018-12-24T16:00:02.567Z,96605.39
2018-12-24T16:02:31.096Z,96600.61
2018-12-24T16:04:59.608Z,96606.51
2018-12-24T16:07:28.141Z,96612.39
2018-12-24T16:09:57.627Z,96615.17
2018-12-24T16:12:26.133Z,96622.58
2018-12-24T16:14:54.697Z,96625.59
2018-12-24T16:17:23.222Z,96630.58
2018-12-24T16:19:52.323Z,96628.09
2018-12-24T16:22:20.871Z,96641.23
2018-12-24T16:24:49.388Z,96641.61
2018-12-24T16:27:17.917Z,96648.66
2018-12-24T16:29:46.443Z,96653.52
2018-12-24T16:32:14.970Z,96652.89
2018-12-24T16:34:43.481Z,96656.11
2018-12-24T16:37:12.920Z,96656.17
2018-12-24T16:39:41.467Z,96651.45
2018-12-24T16:42:09.991Z,96649.72
2018-12-24T16:44:38.500Z,96651.95
2018-12-24T16:47:07.039Z,96652.66
2018-12-24T16:49:35.563Z,96650.02
2018-12-24T16:52:04.103Z,96646.98
2018-12-24T16:54:32.687Z,96657.34
2018-12-24T16:57:01.186Z,96656.13
2018-12-24T16:59:29.773Z,96659.36
2018-12-24T17:01:58.241Z,96664.67
2018-12-24T17:04:26.750Z,96661.03
2018-12-24T17:06:55.325Z,96668.88
2018-12-24T17:09:23.896Z,96672.13
2018-12-24T17:11:52.427Z,96681.86
2018-12-24T17:14:21.927Z,96681.79
2018-12-24T17:16:50.446Z,96685.20
2018-12-24T17:19:18.964Z,96691.08
2018-12-24T17:21:47.580Z,96683.41
2018-12-24T17:24:16.078Z,96689.71
2018-12-24T17:26:44.606Z,96691.00
2018-12-24T17:29:13.129Z,96690.73
2018-12-24T17:31:41.711Z,96697.67
2018-12-24T17:34:11.193Z,96704.33
2018-12-24T17:36:42.796Z,96699.70
2018-12-24T17:39:11.309Z,96695.86
2018-12-24T17:41:39.907Z,96695.75
2018-12-24T17:44:08.408Z,96691.59
2018-12-24T17:46:36.924Z,96692.84
2018-12-24T17:49:05.521Z,96691.64
2018-12-24T17:51:34.014Z,96694.00
2018-12-24T17:54:02.529Z,96689.34
2018-12-24T17:56:31.085Z,96694.23
2018-12-24T17:59:09.427Z,96692.42
2018-12-24T18:01:37.926Z,96688.32
2018-12-24T18:04:06.510Z,96691.78
2018-12-24T18:06:35.017Z,96693.47
2018-12-24T18:09:03.595Z,96690.89
2018-12-24T18:11:32.108Z,96698.87
2018-12-24T18:14:00.736Z,96699.34
2018-12-24T18:16:29.314Z,96708.09
2018-12-24T18:18:58.577Z,96707.67
2018-12-24T18:21:27.117Z,96710.91
2018-12-24T18:23:56.698Z,96712.23
2018-12-24T18:26:25.520Z,96713.48
2018-12-24T18:28:54.066Z,96718.95
2018-12-24T18:31:22.581Z,96726.56
2018-12-24T18:33:51.219Z,96731.66
2018-12-24T18:36:20.699Z,96740.28
2018-12-24T18:38:49.213Z,96739.10
2018-12-24T18:41:17.762Z,96738.02
2018-12-24T18:43:50.260Z,96749.53
2018-12-24T18:46:18.840Z,96747.97
2018-12-24T18:48:47.464Z,96751.70
2018-12-24T18:51:16.000Z,96756.52
2018-12-24T18:53:44.542Z,96760.52
2018-12-24T18:56:13.070Z,96757.08
2018-12-24T18:58:41.594Z,96756.88
2018-12-24T19:01:10.126Z,96756.92
2018-12-24T19:03:38.690Z,96760.92
2018-12-24T19:06:07.268Z,96760.33
2018-12-24T19:08:35.794Z,96763.10
2018-12-24T19:11:04.338Z,96770.52
2018-12-24T19:13:32.866Z,96781.70
2018-12-24T19:16:01.385Z,96784.73
2018-12-24T19:18:31.868Z,96785.69
2018-12-24T19:21:00.462Z,96783.16
2018-12-24T19:23:28.978Z,96784.32
2018-12-24T19:25:57.543Z,96787.65
2018-12-24T19:28:26.057Z,96785.14
2018-12-24T19:30:56.737Z,96793.72
2018-12-24T19:33:25.254Z,96800.27
2018-12-24T19:35:53.825Z,96802.48
2018-12-24T19:38:27.393Z,96805.00
2018-12-24T19:40:55.904Z,96806.36
2018-12-24T19:43:24.458Z,96805.39
2018-12-24T19:45:53.017Z,96805.72
2018-12-24T19:48:21.525Z,96803.27
2018-12-24T19:50:50.050Z,96795.75
2018-12-24T19:53:18.594Z,96790.59
2018-12-24T19:55:47.120Z,96790.77
2018-12-24T19:58:15.681Z,96795.61
2018-12-24T20:00:44.229Z,96796.33
2018-12-24T20:03:13.788Z,96796.77
2018-12-24T20:05:42.301Z,96800.98
2018-12-24T20:08:10.837Z,96803.33
2018-12-24T20:10:40.281Z,96791.70
2018-12-24T20:13:08.796Z,96791.93
2018-12-24T20:15:37.341Z,96794.42
2018-12-24T20:18:05.856Z,96802.55
2018-12-24T20:20:34.391Z,96810.05
2018-12-24T20:23:06.160Z,96824.50
2018-12-24T20:25:34.736Z,96828.52
2018-12-24T20:28:03.261Z,96838.20
2018-12-24T20:30:31.796Z,96838.37
2018-12-24T20:33:00.292Z,96838.87
2018-12-24T20:35:28.816Z,96840.42
2018-12-24T20:37:57.345Z,96838.69
2018-12-24T20:40:25.909Z,96847.52
2018-12-24T20:42:54.414Z,96844.28
2018-12-24T20:45:22.929Z,96853.04
2018-12-24T20:47:51.462Z,96858.55
2018-12-24T20:50:19.984Z,96855.93
2018-12-24T20:52:48.567Z,96855.48
2018-12-24T20:55:17.160Z,96863.11
2018-12-24T20:57:45.673Z,96866.03
2018-12-24T21:00:14.195Z,96874.09
2018-12-24T21:02:42.710Z,96878.53
2018-12-24T21:05:11.230Z,96883.73
2018-12-24T21:07:39.750Z,96885.32
2018-12-24T21:10:09.214Z,96888.92
2018-12-24T21:12:37.772Z,96895.28
2018-12-24T21:15:06.281Z,96905.45
2018-12-24T21:17:34.796Z,96894.78
2018-12-24T21:20:05.238Z,96898.81
2018-12-24T21:22:33.790Z,96893.83
2018-12-24T21:25:02.351Z,96892.78
2018-12-24T21:27:31.818Z,96891.66
2018-12-24T21:30:00.356Z,96890.05
2018-12-24T21:32:28.874Z,96891.14
2018-12-24T21:34:57.395Z,96892.39
2018-12-24T21:37:25.925Z,96896.81
2018-12-24T21:39:54.453Z,96900.00
2018-12-24T21:42:22.973Z,96904.24
2018-12-24T21:44:51.490Z,96904.97
2018-12-24T21:47:20.033Z,96908.67
2018-12-24T21:49:56.929Z,96906.02
2018-12-24T21:52:26.157Z,96906.77
2018-12-24T21:54:56.589Z,96913.95
2018-12-24T21:57:25.098Z,96913.29
2018-12-24T21:59:53.617Z,96909.52
2018-12-24T22:02:22.150Z,96912.87
2018-12-24T22:04:50.714Z,96911.70
2018-12-24T22:07:19.232Z,96918.80
2018-12-24T22:09:47.831Z,96919.20
2018-12-24T22:12:16.343Z,96922.45
2018-12-24T22:14:44.867Z,96925.14
2018-12-24T22:17:13.386Z,96926.39
2018-12-24T22:19:41.910Z,96930.95
2018-12-24T22:22:10.642Z,96926.52
2018-12-24T22:24:39.376Z,96925.22
2018-12-24T22:27:07.928Z,96921.63
2018-12-24T22:29:36.493Z,96921.05
2018-12-24T22:32:10.156Z,96917.34
2018-12-24T22:34:38.665Z,96913.53
2018-12-24T22:37:07.226Z,96917.69
2018-12-24T22:39:35.778Z,96909.27
2018-12-24T22:42:04.390Z,96907.20
2018-12-24T22:44:32.941Z,96901.86
2018-12-24T22:47:02.371Z,96899.41
2018-12-24T22:49:30.940Z,96898.05
2018-12-24T22:51:59.429Z,96898.16
2018-12-24T22:54:32.264Z,96902.05
2018-12-24T22:57:00.759Z,96896.55
2018-12-24T22:59:29.275Z,96897.20
2018-12-24T23:01:57.817Z,96902.38
2018-12-24T23:04:26.349Z,96899.63
2018-12-24T23:06:54.875Z,96902.94
2018-12-24T23:09:23.419Z,96913.17
2018-12-24T23:11:52.025Z,96911.84
2018-12-24T23:14:20.520Z,96917.14
2018-12-24T23:16:56.159Z,96924.33
2018-12-24T23:19:25.947Z,96929.69
2018-12-24T23:21:54.453Z,96931.25
2018-12-24T23:24:23.098Z,96938.22
2018-12-24T23:26:51.635Z,96940.68
2018-12-24T23:29:20.157Z,96940.38
2018-12-24T23:31:48.695Z,96942.58
2018-12-24T23:34:17.295Z,96938.46
2018-12-24T23:36:45.787Z,96933.96
2018-12-24T23:39:14.343Z,96936.78
2018-12-24T23:41:42.865Z,96930.80
2018-12-24T23:44:11.465Z,96936.53
2018-12-24T23:46:39.979Z,96944.56
2018-12-24T23:49:08.530Z,96937.37
2018-12-24T23:51:37.052Z,96938.45
2018-12-24T23:54:05.574Z,96937.26
2018-12-24T23:56:35.397Z,96943.59
2018-12-24T23:59:04.104Z,96944.14
